Time;durP1;ratioP1;P1;durP2;ratioP2;P2;SDS_P1;SDS_P2;PMS_P1;PMS_P2;Temp;Humidity;BMP_temperature;BMP_pressure;BME280_temperature;BME280_humidity;BME280_pressure;Samples;Min_cycle;Max_cycle;Signal;HPM_P1;HPM_P2
2024/03/13 00:01:54;;;;;;;7.17;2.83;;;15.30;99.90;;;15.21;53.72;100944.09;6026898;22;103604;-40
2024/03/13 00:04:20;;;;;;;4.67;2.80;;;15.10;99.90;;;15.28;53.02;100948.16;6091638;22;99726;-42
2024/03/13 00:06:55;;;;;;;3.23;2.33;;;15.10;99.90;;;15.35;52.57;100942.47;6060535;22;109231;-40
2024/03/13 00:09:24;;;;;;;8.17;3.03;;;15.30;99.90;;;15.32;52.97;100942.59;6071719;22;97146;-42
2024/03/13 00:11:50;;;;;;;2.33;1.60;;;15.30;99.90;;;15.34;52.90;100942.56;6086066;22;98900;-42
2024/03/13 00:14:21;;;;;;;8.07;2.90;;;15.30;99.90;;;15.22;53.65;100940.50;6089915;22;98832;-41
2024/03/13 00:16:47;;;;;;;4.20;2.33;;;15.20;99.90;;;15.21;53.50;100939.66;6021270;22;120150;-43
2024/03/13 00:19:13;;;;;;;3.10;1.50;;;15.10;99.90;;;15.35;52.76;100944.28;6054157;22;112526;-44
2024/03/13 00:21:40;;;;;;;4.20;2.07;;;15.20;99.90;;;15.40;52.75;100944.88;6090117;22;99377;-42
2024/03/13 00:24:06;;;;;;;3.53;1.90;;;15.30;99.90;;;15.46;52.04;100949.88;6069721;22;98883;-46
2024/03/13 00:26:33;;;;;;;3.13;1.80;;;15.50;99.90;;;15.46;52.62;100944.56;6092152;22;98343;-43
2024/03/13 00:29:04;;;;;;;2.40;1.63;;;15.40;99.90;;;15.45;52.60;100938.38;6062501;22;97973;-42
2024/03/13 00:31:33;;;;;;;6.13;2.60;;;15.40;99.90;;;15.39;52.69;100948.47;5963212;22;99413;-46
2024/03/13 00:34:00;;;;;;;5.43;2.97;;;15.20;99.90;;;15.28;53.74;100945.50;5988813;22;98748;-41
2024/03/13 00:36:26;;;;;;;2.30;1.30;;;15.10;99.90;;;15.28;53.10;100940.19;6063256;22;97744;-41
2024/03/13 00:38:58;;;;;;;2.23;1.60;;;15.10;99.90;;;15.25;53.11;100943.00;5975187;22;98627;-41
2024/03/13 00:41:24;;;;;;;3.27;1.70;;;15.00;99.90;;;15.25;53.07;100940.34;6084022;22;98391;-40
2024/03/13 00:43:53;;;;;;;4.53;2.20;;;15.00;99.90;;;15.26;53.00;100942.94;6085635;22;124479;-45
2024/03/13 00:46:23;;;;;;;3.50;2.00;;;15.00;99.90;;;15.13;53.94;100948.00;6051954;22;97947;-44
2024/03/13 00:48:49;;;;;;;4.93;2.40;;;14.90;99.90;;;15.21;53.13;100944.09;5989158;22;105948;-45
2024/03/13 00:51:15;;;;;;;2.17;1.07;;;15.00;99.90;;;15.26;53.37;100947.38;6030938;22;103831;-37
2024/03/13 00:53:41;;;;;;;3.57;2.13;;;15.10;99.90;;;15.31;52.95;100945.34;6079791;22;126800;-40
2024/03/13 00:56:11;;;;;;;1.43;1.27;;;15.20;99.90;;;15.35;52.71;100950.44;6048430;22;116901;-44
2024/03/13 00:58:44;;;;;;;1.87;1.30;;;15.30;99.90;;;15.40;52.82;100945.75;6065313;22;97992;-41
2024/03/13 01:01:11;;;;;;;3.17;1.77;;;15.30;99.90;;;15.37;53.17;100948.56;6027085;22;99889;-44
2024/03/13 01:03:38;;;;;;;2.63;1.60;;;15.30;99.90;;;15.30;53.37;100948.94;6073369;22;98006;-43
2024/03/13 01:06:07;;;;;;;2.57;1.50;;;15.20;99.90;;;15.29;53.06;100941.91;6086061;22;97401;-37
2024/03/13 01:08:36;;;;;;;2.90;1.73;;;15.20;99.90;;;15.21;53.19;100941.44;6085815;22;98207;-44
2024/03/13 01:11:04;;;;;;;4.30;1.73;;;15.10;99.90;;;15.27;53.07;100938.47;6086820;22;98920;-45
2024/03/13 01:13:30;;;;;;;1.77;1.07;;;15.10;99.90;;;15.31;53.16;100940.88;6069747;22;99649;-39
2024/03/13 01:15:59;;;;;;;1.77;1.10;;;15.20;99.90;;;15.43;52.75;100947.38;6068181;22;97772;-41
2024/03/13 01:18:26;;;;;;;1.67;1.00;;;15.40;99.90;;;15.52;52.33;100936.28;5973331;22;97362;-43
2024/03/13 01:20:53;;;;;;;2.20;1.27;;;15.50;99.90;;;15.58;52.34;100938.63;5907342;22;98732;-45
2024/03/13 01:23:20;;;;;;;1.50;0.93;;;15.60;99.90;;;15.56;52.35;100951.13;6042167;22;98433;-42
2024/03/13 01:25:53;;;;;;;4.17;1.80;;;15.60;99.90;;;15.62;51.97;100945.56;6058024;22;98142;-44
2024/03/13 01:28:21;;;;;;;1.30;0.90;;;15.70;99.90;;;15.68;52.20;100949.69;6050182;22;106781;-44
2024/03/13 01:30:47;;;;;;;2.47;1.23;;;15.70;99.90;;;15.72;51.80;100949.44;6030666;22;98750;-46
2024/03/13 01:33:12;;;;;;;3.37;1.93;;;15.80;99.90;;;15.75;52.13;100946.59;6013988;22;127430;-45
2024/03/13 01:35:38;;;;;;;2.67;1.50;;;15.80;99.90;;;15.71;51.82;100939.72;6050403;22;105752;-45
2024/03/13 01:38:04;;;;;;;1.70;1.20;;;15.80;99.90;;;15.83;51.50;100942.69;5972205;22;98455;-43
2024/03/13 01:54:50;;;;;;;3.37;1.63;;;15.90;99.90;;;15.78;51.93;100948.25;6116734;22;118223;-40
2024/03/13 01:57:33;;;;;;;1.53;1.07;;;15.90;99.90;;;15.94;51.33;100945.66;6111334;22;97201;-41
2024/03/13 02:02:49;;;;;;;1.80;1.33;;;16.10;99.90;;;16.00;51.07;100947.97;6078268;22;101817;-41
2024/03/13 02:05:17;;;;;;;1.53;1.10;;;16.10;99.90;;;15.87;51.85;100944.25;6060837;22;115056;-42
2024/03/13 02:07:43;;;;;;;2.77;1.67;;;16.00;99.90;;;15.84;51.61;100939.94;6112366;22;97392;-42
2024/03/13 02:10:11;;;;;;;1.10;0.80;;;15.90;99.90;;;15.85;51.85;100938.16;6054148;22;97347;-45
2024/03/13 02:12:37;;;;;;;0.97;0.87;;;15.90;99.90;;;15.87;51.65;100939.78;6113979;22;105042;-42
2024/03/13 02:15:04;;;;;;;1.57;0.83;;;15.90;99.90;;;15.88;51.38;100940.63;6111233;22;98019;-45
2024/03/13 02:17:37;;;;;;;2.00;0.97;;;15.90;99.90;;;15.91;51.48;100943.13;6111147;22;97386;-40
2024/03/13 02:20:06;;;;;;;1.73;0.90;;;15.90;99.90;;;15.90;51.62;100938.75;6105881;22;98470;-39
2024/03/13 02:22:34;;;;;;;2.60;1.17;;;15.90;99.90;;;15.94;51.60;100950.97;6092874;22;99634;-42
2024/03/13 02:25:00;;;;;;;1.60;1.10;;;16.00;99.90;;;15.94;51.04;100941.19;6107368;22;122356;-44
2024/03/13 02:27:25;;;;;;;1.60;1.00;;;16.00;99.90;;;15.89;51.80;100947.69;6111116;22;109551;-44
2024/03/13 02:29:51;;;;;;;1.40;1.00;;;15.90;99.90;;;15.89;51.33;100939.69;6112320;22;106694;-44
2024/03/13 02:32:17;;;;;;;1.23;0.87;;;15.90;99.90;;;15.87;51.75;100938.91;6098873;22;102039;-43
2024/03/13 02:34:46;;;;;;;1.57;0.90;;;15.90;99.90;;;15.88;51.57;100937.97;6099056;22;116499;-40
2024/03/13 02:37:11;;;;;;;0.90;0.57;;;15.90;99.90;;;15.87;51.76;100937.13;6105079;22;98559;-41
2024/03/13 02:39:37;;;;;;;1.00;0.90;;;15.90;99.90;;;15.89;51.51;100929.91;6074398;22;115155;-42
2024/03/13 02:42:09;;;;;;;1.93;1.00;;;16.00;99.90;;;15.88;51.81;100928.19;6019395;22;99981;-43
2024/03/13 02:44:38;;;;;;;1.17;0.67;;;15.90;99.90;;;15.90;51.55;100928.09;6108725;22;98358;-44
2024/03/13 02:47:04;;;;;;;1.70;0.80;;;15.90;99.90;;;15.92;51.55;100931.56;6069350;22;97081;-41
2024/03/13 02:49:30;;;;;;;1.73;1.20;;;16.00;99.90;;;15.85;52.18;100924.84;6105777;22;97938;-41
2024/03/13 02:51:56;;;;;;;1.13;0.87;;;15.90;99.90;;;15.85;51.57;100924.84;6107608;22;99804;-46
2024/03/13 02:54:26;;;;;;;1.17;0.50;;;15.80;99.90;;;15.86;51.58;100927.41;6112254;22;97407;-44
2024/03/13 02:56:54;;;;;;;1.50;1.00;;;15.80;99.90;;;15.91;51.38;100932.47;6099450;22;97591;-43
2024/03/13 02:59:25;;;;;;;2.23;0.80;;;15.90;99.90;;;15.89;51.82;100926.41;6116806;22;97327;-43
2024/03/13 03:01:52;;;;;;;0.87;0.67;;;15.90;99.90;;;15.77;52.11;100919.94;6112137;22;101989;-40
2024/03/13 03:04:18;;;;;;;1.43;1.03;;;15.80;99.90;;;15.77;52.21;100927.94;6091542;22;108024;-43
2024/03/13 03:06:45;;;;;;;2.13;1.03;;;15.70;99.90;;;15.77;52.02;100927.94;6123605;22;97114;-44
2024/03/13 03:09:11;;;;;;;1.40;0.90;;;15.70;99.90;;;15.74;51.88;100931.59;6110988;22;98867;-42
2024/03/13 03:11:37;;;;;;;1.80;1.10;;;15.70;99.90;;;15.71;52.19;100926.44;6094577;22;97855;-43
2024/03/13 03:14:05;;;;;;;2.00;0.80;;;15.60;99.90;;;15.68;52.28;100929.25;6078872;22;123581;-41
2024/03/13 03:16:30;;;;;;;1.37;0.90;;;15.60;99.90;;;15.67;51.58;100924.88;6081931;22;97799;-44
2024/03/13 03:18:59;;;;;;;0.93;0.53;;;15.60;99.90;;;15.72;52.12;100928.16;6117266;22;97378;-45
2024/03/13 03:21:25;;;;;;;0.67;0.63;;;15.70;99.90;;;15.74;51.88;100928.94;6095057;22;100141;-43
2024/03/13 03:23:51;;;;;;;1.17;0.63;;;15.70;99.90;;;15.74;52.15;100928.06;6115317;22;97530;-45
2024/03/13 03:26:20;;;;;;;1.33;0.77;;;15.70;99.90;;;15.76;51.95;100928.84;6062871;22;102900;-43
2024/03/13 03:28:45;;;;;;;1.00;0.80;;;15.70;99.90;;;15.76;52.05;100936.81;6098212;22;97727;-43
2024/03/13 03:31:11;;;;;;;1.00;0.77;;;15.70;99.90;;;15.72;52.33;100936.13;6106420;22;124924;-42
2024/03/13 03:33:37;;;;;;;0.57;0.40;;;15.70;99.90;;;15.71;52.26;100939.72;6110452;22;125313;-44
2024/03/13 03:36:05;;;;;;;1.77;1.23;;;15.60;99.90;;;15.60;53.39;100934.09;6109813;22;104271;-44
2024/03/13 03:38:32;;;;;;;1.40;1.30;;;15.60;99.90;;;15.55;53.35;100930.81;6049042;22;97359;-40
2024/03/13 03:41:07;;;;;;;1.13;0.57;;;15.50;99.90;;;15.55;52.50;100933.47;6110399;22;98364;-43
2024/03/13 03:43:34;;;;;;;0.97;0.60;;;15.40;99.90;;;15.52;52.84;100946.91;6110349;22;99313;-46
2024/03/13 03:45:59;;;;;;;1.07;0.67;;;15.40;99.90;;;15.53;52.86;100945.13;6108876;22;97789;-44
2024/03/13 03:48:25;;;;;;;2.07;1.10;;;15.40;99.90;;;15.51;53.85;100947.00;6089572;22;112651;-44
2024/03/13 03:50:51;;;;;;;1.57;0.90;;;15.40;99.90;;;15.51;52.68;100937.22;6069710;22;106801;-41
2024/03/13 03:53:18;;;;;;;1.20;0.60;;;15.40;99.90;;;15.53;52.55;100950.44;6094898;22;101344;-44
2024/03/13 03:55:46;;;;;;;0.57;0.57;;;15.30;99.90;;;15.50;52.86;100951.47;6110496;22;97442;-43
2024/03/13 03:58:12;;;;;;;0.90;0.53;;;15.30;99.90;;;15.54;52.67;100947.69;6093132;22;97492;-45
2024/03/13 04:00:38;;;;;;;0.70;0.50;;;15.40;99.90;;;15.59;52.69;100935.03;6109552;22;98268;-44
2024/03/13 04:03:05;;;;;;;0.90;0.60;;;15.50;99.90;;;15.64;52.68;100943.66;6108373;22;98695;-41
2024/03/13 04:05:31;;;;;;;1.37;0.50;;;15.60;99.90;;;15.70;52.33;100940.66;6110019;22;97335;-43
2024/03/13 04:08:02;;;;;;;0.80;0.50;;;15.70;99.90;;;15.74;52.13;100944.88;6081680;22;97533;-43
2024/03/13 04:10:28;;;;;;;0.50;0.50;;;15.70;99.90;;;15.75;51.64;100943.06;6089101;22;98541;-43
2024/03/13 04:12:54;;;;;;;0.40;0.40;;;15.80;99.90;;;15.77;52.03;100942.09;6093641;22;120296;-44
2024/03/13 04:15:23;;;;;;;0.33;0.30;;;15.80;99.90;;;15.84;51.87;100944.41;6110777;22;103741;-40
2024/03/13 04:17:51;;;;;;;0.30;0.27;;;15.90;99.90;;;15.86;51.87;100948.69;6083387;22;97601;-44
2024/03/13 04:20:20;;;;;;;1.03;0.50;;;15.90;99.90;;;15.85;51.93;100943.47;6123578;22;98185;-44
2024/03/13 04:22:46;;;;;;;0.80;0.50;;;15.90;99.90;;;15.89;51.78;100953.00;6110391;22;98787;-43
2024/03/13 04:25:13;;;;;;;0.43;0.33;;;15.90;99.90;;;15.89;51.97;100947.69;6107587;22;97886;-42
2024/03/13 04:27:39;;;;;;;1.20;0.73;;;15.90;99.90;;;15.87;51.72;100949.56;6085462;22;97931;-42
2024/03/13 04:30:05;;;;;;;0.80;0.40;;;15.90;99.90;;;15.85;51.78;100951.44;6093852;22;120683;-45
2024/03/13 04:32:31;;;;;;;0.60;0.40;;;15.90;99.90;;;15.81;51.82;100949.91;6094983;22;99120;-42
2024/03/13 04:35:00;;;;;;;0.50;0.37;;;15.80;99.90;;;15.80;52.00;100948.19;6080946;22;98696;-45
2024/03/13 04:37:28;;;;;;;1.23;0.70;;;15.80;99.90;;;15.79;52.26;100957.09;6069537;22;97972;-45
2024/03/13 04:39:54;;;;;;;0.67;0.20;;;15.70;99.90;;;15.81;51.85;100955.22;6079966;22;97641;-42
2024/03/13 04:42:19;;;;;;;0.67;0.43;;;15.80;99.90;;;15.79;51.96;100957.97;6112984;22;105649;-41
2024/03/13 04:44:45;;;;;;;1.30;0.70;;;15.80;99.90;;;15.79;52.19;100957.09;6093801;22;104829;-39
2024/03/13 04:47:14;;;;;;;0.40;0.40;;;15.80;99.90;;;15.82;51.88;100959.59;6101347;22;97160;-43
2024/03/13 04:49:41;;;;;;;0.67;0.57;;;15.80;99.90;;;15.84;51.83;100963.03;6052411;22;122546;-41
2024/03/13 04:52:07;;;;;;;3.50;0.87;;;15.80;99.90;;;15.83;52.16;100962.16;6087930;22;99331;-42
2024/03/13 04:54:36;;;;;;;0.73;0.60;;;15.80;99.90;;;15.79;52.19;100962.41;6099624;22;97440;-43
2024/03/13 04:57:02;;;;;;;0.80;0.27;;;15.70;99.90;;;15.81;52.11;100971.19;6098808;22;117979;-44
2024/03/13 04:59:27;;;;;;;1.10;0.60;;;15.80;99.90;;;15.76;52.41;100974.06;6100577;22;104484;-43
2024/03/13 05:01:53;;;;;;;0.80;0.40;;;15.70;99.90;;;15.71;52.43;100976.97;6104198;22;126217;-43
2024/03/13 05:04:19;;;;;;;0.53;0.43;;;15.60;99.90;;;15.62;53.11;100977.47;6080887;22;116539;-44
2024/03/13 05:06:46;;;;;;;0.30;0.30;;;15.40;99.90;;;15.62;52.59;100982.78;6099847;22;98818;-42
2024/03/13 05:09:15;;;;;;;0.97;0.47;;;15.40;99.90;;;15.61;52.54;100985.47;6107804;22;101697;-43
2024/03/13 05:11:40;;;;;;;0.83;0.67;;;15.40;99.90;;;15.61;52.61;100983.69;6102251;22;98475;-46
2024/03/13 05:14:06;;;;;;;0.90;0.60;;;15.50;99.90;;;15.58;53.18;100989.13;6096161;22;97578;-45
2024/03/13 05:16:33;;;;;;;0.63;0.30;;;15.50;99.90;;;15.58;52.58;100991.78;6118997;22;97156;-42
2024/03/13 05:18:59;;;;;;;1.03;0.57;;;15.50;99.90;;;15.61;52.72;100989.00;6100820;22;97803;-43
2024/03/13 05:21:27;;;;;;;1.03;0.40;;;15.50;99.90;;;15.61;52.54;100991.66;6126442;22;124942;-38
2024/03/13 05:23:53;;;;;;;0.30;0.30;;;15.50;99.90;;;15.59;52.50;100988.22;6111607;22;97434;-45
2024/03/13 05:26:19;;;;;;;0.67;0.30;;;15.50;99.90;;;15.56;52.96;100991.00;6079379;22;98733;-42
2024/03/13 05:28:50;;;;;;;1.50;0.83;;;15.40;99.90;;;15.56;52.99;100992.81;6093035;22;107792;-43
2024/03/13 05:31:16;;;;;;;0.60;0.20;;;15.40;99.90;;;15.57;52.69;101000.72;6089091;22;123191;-42
2024/03/13 05:33:44;;;;;;;0.37;0.37;;;15.40;99.90;;;15.58;52.73;101002.44;6101851;22;97183;-40
2024/03/13 05:36:11;;;;;;;0.57;0.30;;;15.50;99.90;;;15.55;52.74;100996.41;6106973;22;97118;-45
2024/03/13 05:38:37;;;;;;;0.90;0.50;;;15.40;99.90;;;15.50;53.09;100991.34;6092909;22;100156;-44
2024/03/13 05:41:03;;;;;;;0.30;0.27;;;15.40;99.90;;;15.52;52.92;101002.75;6108089;22;127483;-42
2024/03/13 05:43:28;;;;;;;0.60;0.30;;;15.30;99.90;;;15.57;52.84;101003.38;6116075;22;99575;-43
2024/03/13 05:45:54;;;;;;;0.50;0.30;;;15.50;99.90;;;15.60;52.64;100994.41;6103159;22;113684;-43
2024/03/13 05:48:20;;;;;;;0.13;0.13;;;15.50;99.90;;;15.61;52.49;101002.28;6111469;22;102420;-44
2024/03/13 05:50:45;;;;;;;0.90;0.50;;;15.50;99.90;;;15.61;52.70;101007.63;6115174;22;122465;-43
2024/03/13 05:53:11;;;;;;;0.80;0.30;;;15.50;99.90;;;15.63;52.49;101004.91;6112611;22;97787;-43
2024/03/13 05:55:37;;;;;;;0.97;0.60;;;15.60;99.90;;;15.64;52.57;101004.81;6086481;22;114454;-42
2024/03/13 05:58:04;;;;;;;1.00;0.40;;;15.60;99.90;;;15.62;52.56;101009.38;6104635;22;100118;-42
2024/03/13 06:00:29;;;;;;;0.63;0.30;;;15.50;99.90;;;15.60;52.90;101005.91;6098517;22;98800;-43
2024/03/13 06:02:55;;;;;;;0.50;0.20;;;15.50;99.90;;;15.66;52.59;101008.25;6105287;22;97193;-44
2024/03/13 06:05:23;;;;;;;0.40;0.30;;;15.60;99.90;;;15.70;52.57;101011.63;6114524;22;97339;-44
2024/03/13 06:07:55;;;;;;;0.33;0.27;;;15.70;99.90;;;15.72;52.57;101015.91;6110625;22;101752;-42
2024/03/13 06:10:21;;;;;;;0.50;0.30;;;15.70;99.90;;;15.73;52.60;101007.00;6102717;22;103101;-42
2024/03/13 06:12:47;;;;;;;0.43;0.40;;;15.70;99.90;;;15.71;52.50;101011.53;6084212;22;97349;-43
2024/03/13 06:15:15;;;;;;;1.03;0.63;;;15.60;99.90;;;15.67;53.50;101012.63;6074168;22;107273;-44
2024/03/13 06:17:41;;;;;;;0.30;0.30;;;15.60;99.90;;;15.72;52.47;101026.56;6100643;22;98287;-44
2024/03/13 06:20:13;;;;;;;0.17;0.10;;;15.60;99.90;;;15.64;53.02;101010.16;6078938;22;124828;-41
2024/03/13 06:22:41;;;;;;;0.40;0.30;;;15.60;99.90;;;15.65;52.99;101019.84;6089090;22;97068;-44
2024/03/13 06:25:08;;;;;;;1.30;0.70;;;15.50;99.90;;;15.52;56.16;101020.50;6056187;22;102392;-43
2024/03/13 06:27:35;;;;;;;0.30;0.20;;;15.40;99.90;;;15.52;53.61;101018.69;6118664;22;99261;-44
2024/03/13 06:30:01;;;;;;;0.90;0.67;;;15.30;99.90;;;15.54;53.48;101016.81;6098927;22;98297;-44
2024/03/13 06:32:32;;;;;;;0.63;0.30;;;15.40;99.90;;;15.60;52.77;101029.81;6134243;22;97170;-43
2024/03/13 06:35:00;;;;;;;0.80;0.40;;;15.40;99.90;;;15.64;52.93;101020.78;6101260;22;97731;-45
2024/03/13 06:37:27;;;;;;;0.17;0.17;;;15.50;99.90;;;15.70;52.38;101017.78;6070809;22;99455;-42
2024/03/13 06:39:59;;;;;;;0.53;0.40;;;15.60;99.90;;;15.74;52.37;101024.66;6113504;22;100120;-45
2024/03/13 06:42:25;;;;;;;1.27;0.50;;;15.70;99.90;;;15.75;52.52;101020.22;6112691;22;97502;-43
2024/03/13 06:44:51;;;;;;;0.17;0.10;;;15.80;99.90;;;15.84;52.27;101018.88;6108069;22;97166;-45
2024/03/13 06:47:17;;;;;;;0.57;0.40;;;15.90;99.90;;;15.83;52.52;101028.66;6098720;22;98680;-44
2024/03/13 06:49:44;;;;;;;0.70;0.60;;;15.80;99.90;;;15.81;52.68;101024.38;6099204;22;97524;-46
2024/03/13 06:52:16;;;;;;;0.70;0.70;;;15.80;99.90;;;15.80;53.18;101025.31;6098473;22;97088;-41
2024/03/13 06:54:43;;;;;;;0.60;0.37;;;15.70;99.90;;;15.78;52.55;101028.06;6099467;22;97158;-43
2024/03/13 06:57:12;;;;;;;0.83;0.20;;;15.70;99.90;;;15.75;52.68;101031.72;6095524;22;98935;-45
2024/03/13 06:59:44;;;;;;;1.30;0.40;;;15.60;99.90;;;15.16;54.87;101038.19;6108691;22;102098;-43
2024/03/13 07:02:14;;;;;;;3.00;0.20;;;14.90;99.90;;;15.33;54.50;101037.34;6080933;22;97209;-41
2024/03/13 07:04:39;;;;;;;1.20;0.50;;;15.10;99.90;;;15.46;54.15;101040.25;6110610;22;97789;-38
2024/03/13 07:07:05;;;;;;;0.20;0.20;;;15.30;99.90;;;15.56;53.65;101052.16;6101978;22;98442;-41
2024/03/13 07:09:36;;;;;;;0.50;0.40;;;15.50;99.90;;;15.64;53.40;101041.19;6114168;22;97648;-43
2024/03/13 07:12:05;;;;;;;0.40;0.20;;;15.60;99.90;;;15.68;53.13;101040.94;6097381;22;98123;-42
2024/03/13 07:14:31;;;;;;;0.57;0.47;;;15.60;99.90;;;15.68;53.24;101040.94;6111828;22;97536;-41
2024/03/13 07:16:56;;;;;;;4.20;1.00;;;15.60;99.90;;;15.60;55.74;101043.13;6112362;22;98921;-43
2024/03/13 07:19:23;;;;;;;1.27;1.10;;;15.50;99.90;;;15.50;55.18;101047.16;6085966;22;99283;-40
2024/03/13 07:21:51;;;;;;;1.50;0.77;;;15.30;99.90;;;15.50;54.01;101047.16;6084650;22;97161;-43
2024/03/13 07:24:17;;;;;;;1.00;0.30;;;15.30;99.90;;;15.43;54.01;101051.06;6117175;22;97512;-43
2024/03/13 07:26:43;;;;;;;0.50;0.30;;;15.20;99.90;;;15.49;53.71;101048.09;6099543;22;97989;-43
2024/03/13 07:29:09;;;;;;;0.67;0.60;;;15.30;99.90;;;15.53;53.43;101052.31;6125552;22;98826;-41
2024/03/13 07:31:35;;;;;;;0.33;0.20;;;15.40;99.90;;;15.59;53.18;101057.34;6042304;22;107581;-44
2024/03/13 07:34:00;;;;;;;0.40;0.20;;;15.50;99.90;;;15.60;53.62;101056.41;6059578;22;107499;-43
2024/03/13 07:36:26;;;;;;;2.47;1.20;;;15.50;99.90;;;15.63;54.58;101055.44;6106588;22;123195;-42
2024/03/13 07:38:53;;;;;;;0.70;0.30;;;15.60;99.90;;;15.65;53.36;101046.44;6076282;22;123766;-43
2024/03/13 07:41:19;;;;;;;0.33;0.23;;;15.50;99.90;;;15.60;53.45;101060.88;6067917;22;97052;-43
2024/03/13 07:43:45;;;;;;;1.23;0.90;;;15.50;99.90;;;15.51;55.34;101054.22;6064302;22;97529;-43
2024/03/13 07:46:20;;;;;;;1.17;0.30;;;15.30;99.90;;;15.51;55.49;101064.84;6107784;22;97927;-43
2024/03/13 07:48:46;;;;;;;1.60;1.07;;;15.30;99.90;;;15.38;57.84;101074.34;6094414;22;127197;-42
2024/03/13 07:51:15;;;;;;;0.30;0.30;;;15.20;99.90;;;15.38;54.21;101074.34;6106927;22;97531;-44
2024/03/13 07:53:40;;;;;;;0.70;0.33;;;15.10;99.90;;;15.43;53.93;101072.31;6111032;22;97449;-45
2024/03/13 07:56:09;;;;;;;0.30;0.20;;;15.20;99.90;;;15.49;53.62;101072.03;6084829;22;120999;-44
2024/03/13 07:58:37;;;;;;;0.40;0.30;;;15.40;99.90;;;15.57;53.35;101075.16;5968781;22;100333;-44
2024/03/13 08:01:05;;;;;;;0.40;0.30;;;15.50;99.90;;;15.60;53.31;101075.03;6067225;22;106682;-44
2024/03/13 08:03:34;;;;;;;0.30;0.30;;;15.50;99.90;;;15.68;53.03;101064.88;6076889;22;106796;-43
2024/03/13 08:06:00;;;;;;;1.37;0.20;;;15.60;99.90;;;15.78;52.66;101062.63;6062226;22;99718;-45
2024/03/13 08:08:29;;;;;;;0.23;0.20;;;15.80;99.90;;;15.87;52.52;101066.59;6042006;22;99935;-43
2024/03/13 08:10:55;;;;;;;0.27;0.27;;;15.90;99.90;;;15.94;52.95;101068.03;6080105;22;98729;-44
2024/03/13 08:13:23;;;;;;;0.40;0.13;;;16.00;99.90;;;15.97;52.35;101073.19;6043343;22;110847;-43
2024/03/13 08:15:50;;;;;;;0.30;0.20;;;16.00;99.90;;;16.02;52.56;101079.97;5959138;22;117203;-44
2024/03/13 08:18:20;;;;;;;0.50;0.20;;;16.10;99.90;;;16.06;51.97;101081.56;6037837;22;98048;-44
2024/03/13 08:20:48;;;;;;;0.50;0.27;;;16.10;99.90;;;16.07;52.29;101087.75;6054758;22;97875;-41
2024/03/13 08:23:29;;;;;;;0.30;0.20;;;16.10;99.90;;;16.06;52.15;101088.69;6055541;22;98214;-44
2024/03/13 08:25:59;;;;;;;1.43;1.00;;;16.10;99.90;;;15.99;54.34;101085.47;6085140;22;104139;-43
2024/03/13 08:28:25;;;;;;;1.97;1.20;;;15.90;99.90;;;15.84;57.40;101098.69;6005277;22;102991;-44
2024/03/13 08:30:51;;;;;;;1.07;0.60;;;15.70;99.90;;;15.80;53.53;101099.78;6072103;22;98530;-45
2024/03/13 08:33:20;;;;;;;0.87;0.50;;;15.60;99.90;;;15.75;54.37;101108.84;6054572;22;114758;-40
2024/03/13 08:35:50;;;;;;;0.80;0.40;;;15.50;99.90;;;15.74;53.34;101104.47;6021999;22;97978;-44
2024/03/13 08:38:16;;;;;;;0.80;0.20;;;15.50;99.90;;;15.70;53.41;101107.34;6045111;22;125369;-44
2024/03/13 08:40:48;;;;;;;1.17;0.67;;;15.50;99.90;;;15.67;54.45;101108.38;6028584;22;116276;-42
2024/03/13 08:43:18;;;;;;;0.30;0.20;;;15.50;99.90;;;15.69;53.41;101105.63;6042742;22;97826;-44
2024/03/13 08:45:45;;;;;;;0.90;0.50;;;15.50;99.90;;;15.69;53.21;101101.19;6021115;22;100534;-45
2024/03/13 08:48:11;;;;;;;0.20;0.20;;;15.50;99.90;;;15.71;53.33;101111.72;6067284;22;99730;-44
2024/03/13 08:50:46;;;;;;;0.30;0.30;;;15.60;99.90;;;15.68;53.37;101115.41;6082345;22;117989;-43
2024/03/13 08:53:14;;;;;;;2.57;1.93;;;15.60;99.90;;;15.69;56.97;101117.13;6044113;22;97433;-43
2024/03/13 08:55:42;;;;;;;2.40;1.30;;;15.60;99.90;;;15.65;58.06;101126.22;6041806;22;98600;-43
2024/03/13 08:58:16;;;;;;;1.50;1.30;;;15.50;99.90;;;15.60;54.84;101133.53;6033422;22;125458;-44
2024/03/13 09:00:43;;;;;;;3.70;1.53;;;15.40;99.90;;;15.56;55.62;101129.28;6005148;22;97445;-45
2024/03/13 09:03:14;;;;;;;3.47;2.20;;;15.30;99.90;;;15.40;62.43;101138.94;5948738;22;100552;-43
2024/03/13 09:05:40;;;;;;;0.47;0.30;;;15.30;99.90;;;15.43;55.89;101141.44;6057573;22;99850;-41
2024/03/13 09:08:07;;;;;;;1.23;0.80;;;15.20;99.90;;;15.48;54.88;101134.13;6070283;22;100829;-45
2024/03/13 09:10:36;;;;;;;0.97;0.43;;;15.30;99.90;;;15.47;55.91;101143.00;6080058;22;97216;-43
2024/03/13 09:13:03;;;;;;;3.10;1.33;;;15.30;99.90;;;15.44;54.81;101135.19;6037891;22;108994;-43
2024/03/13 09:15:30;;;;;;;4.17;2.33;;;15.20;99.90;;;15.48;54.90;101136.78;6030272;22;99233;-44
2024/03/13 09:18:04;;;;;;;2.73;1.80;;;15.30;99.90;;;15.57;56.34;101148.75;6083170;22;99696;-43
2024/03/13 09:20:50;;;;;;;3.40;1.90;;;15.50;99.90;;;15.54;54.14;101144.44;6017156;22;98983;-44
2024/03/13 09:23:16;;;;;;;4.33;2.27;;;15.40;99.90;;;15.57;56.48;101144.28;6007530;22;98530;-44
2024/03/13 09:25:46;;;;;;;3.87;2.10;;;15.50;99.90;;;15.60;54.54;101143.31;6072127;22;98387;-42
2024/03/13 09:28:11;;;;;;;3.83;1.97;;;15.60;99.90;;;15.57;60.54;101149.59;6065472;22;104620;-42
2024/03/13 09:30:37;;;;;;;4.53;2.30;;;15.60;99.90;;;15.65;54.31;101152.81;6018419;22;98871;-43
2024/03/13 09:33:08;;;;;;;2.70;2.07;;;15.60;99.90;;;15.66;55.24;101149.22;5921088;22;107373;-43
2024/03/13 09:35:34;;;;;;;3.33;2.20;;;15.70;99.90;;;15.68;54.44;101143.81;6015411;22;99619;-42
2024/03/13 09:38:00;;;;;;;2.43;1.47;;;15.70;99.90;;;15.70;55.01;101150.78;6066408;22;98001;-45
2024/03/13 09:40:35;;;;;;;7.57;2.33;;;15.70;99.90;;;15.70;54.42;101156.09;6080338;22;118801;-45
2024/03/13 09:43:08;;;;;;;5.27;2.43;;;15.70;99.90;;;15.70;54.41;101156.09;6073202;22;98268;-45
2024/03/13 09:45:35;;;;;;;3.17;2.10;;;15.70;99.90;;;15.69;57.62;101154.38;5974000;22;100354;-45
2024/03/13 09:48:03;;;;;;;2.43;1.40;;;15.70;99.90;;;15.68;56.19;101152.66;6011379;22;101185;-44
2024/03/13 09:50:30;;;;;;;4.27;2.20;;;15.60;99.90;;;15.54;60.45;101148.91;6027120;22;97509;-43
2024/03/13 09:52:58;;;;;;;5.33;2.10;;;15.50;99.90;;;15.55;58.61;101156.81;6062134;22;97366;-43
2024/03/13 09:55:27;;;;;;;6.50;2.00;;;15.50;99.90;;;15.61;57.24;101156.53;5993196;22;103907;-43
2024/03/13 09:57:53;;;;;;;7.90;2.20;;;15.60;99.90;;;15.61;55.80;101160.97;6069643;22;99882;-43
2024/03/13 10:00:24;;;;;;;2.90;2.07;;;15.60;99.90;;;15.64;55.71;101161.72;6010030;22;105848;-44
2024/03/13 10:02:53;;;;;;;7.50;1.63;;;15.60;99.90;;;15.65;54.58;101157.25;5995539;22;97681;-43
2024/03/13 10:05:26;;;;;;;5.17;1.80;;;15.60;99.90;;;15.71;54.45;101163.13;6042894;22;123098;-45
2024/03/13 10:07:54;;;;;;;2.63;1.37;;;15.70;99.90;;;15.71;55.63;101156.94;6071142;22;98783;-43
2024/03/13 10:10:26;;;;;;;3.87;2.00;;;15.80;99.90;;;15.79;54.42;101170.75;6082356;22;97947;-44
2024/03/13 10:12:55;;;;;;;2.83;1.87;;;15.80;99.90;;;15.84;57.84;101165.19;6045315;22;98508;-45
2024/03/13 10:15:22;;;;;;;1.77;1.57;;;15.90;99.90;;;15.83;55.38;101166.13;5951792;22;98307;-44
2024/03/13 10:18:15;;;;;;;5.03;1.97;;;15.90;99.90;;;15.84;54.86;101162.53;5952862;22;100279;-44
2024/03/13 10:21:08;;;;;;;6.50;1.93;;;15.90;99.90;;;15.89;53.89;101163.16;6052190;22;97484;-43
2024/03/13 10:23:37;;;;;;;3.80;1.83;;;15.90;99.90;;;15.91;54.36;101174.56;6016278;22;98891;-41
2024/03/13 10:26:07;;;;;;;3.00;1.73;;;15.90;99.90;;;15.94;55.43;101164.66;6034515;22;99587;-44
2024/03/13 10:28:38;;;;;;;3.40;1.90;;;16.00;99.90;;;15.96;54.04;101164.59;6070080;22;99555;-44
2024/03/13 10:31:05;;;;;;;4.47;2.53;;;16.00;99.90;;;15.88;61.70;101167.59;6039337;22;97226;-42